Time;durP1;ratioP1;P1;durP2;ratioP2;P2;SDS_P1;SDS_P2;PMS_P1;PMS_P2;Temp;Humidity;BMP_temperature;BMP_pressure;BME280_temperature;BME280_humidity;BME280_pressure;Samples;Min_cycle;Max_cycle;Signal;HPM_P1;HPM_P2
2022/04/23 00:00:34;;;;;;;16.35;8.43;;;;;;;;;;5024470;28;20045;-58
2022/04/23 00:03:01;;;;;;;12.23;8.52;;;;;;;;;;5024736;28;20061;-58
2022/04/23 00:05:28;;;;;;;16.73;8.48;;;;;;;;;;5025240;28;20535;-57
2022/04/23 00:07:54;;;;;;;15.25;8.57;;;;;;;;;;5024197;28;20041;-57
2022/04/23 00:10:22;;;;;;;12.45;8.27;;;;;;;;;;5024778;28;20530;-57
2022/04/23 00:12:48;;;;;;;18.00;9.60;;;;;;;;;;5023009;28;20174;-57
2022/04/23 00:15:14;;;;;;;15.20;9.15;;;;;;;;;;5024864;28;20043;-57
2022/04/23 00:17:43;;;;;;;14.75;8.75;;;;;;;;;;5024524;28;20056;-57
2022/04/23 00:20:12;;;;;;;13.75;7.88;;;;;;;;;;5040817;28;20159;-57
2022/04/23 00:22:38;;;;;;;13.32;8.80;;;;;;;;;;5048041;28;20106;-57
2022/04/23 00:25:05;;;;;;;15.15;9.50;;;;;;;;;;5048161;28;20048;-57
2022/04/23 00:27:31;;;;;;;16.27;9.50;;;;;;;;;;5047552;28;20132;-58
2022/04/23 00:29:57;;;;;;;16.70;8.95;;;;;;;;;;5048909;28;20128;-57
2022/04/23 00:32:23;;;;;;;15.63;9.25;;;;;;;;;;5048351;28;20043;-57
2022/04/23 00:34:49;;;;;;;16.23;8.88;;;;;;;;;;5048123;28;20521;-57
2022/04/23 00:37:15;;;;;;;15.95;9.38;;;;;;;;;;5048141;28;20060;-57
2022/04/23 00:39:41;;;;;;;17.02;9.90;;;;;;;;;;5047538;28;20482;-57
2022/04/23 00:42:09;;;;;;;17.77;9.52;;;;;;;;;;5047667;28;20045;-57
2022/04/23 00:44:37;;;;;;;14.65;9.20;;;;;;;;;;5048022;28;20123;-57
2022/04/23 00:47:04;;;;;;;16.25;9.18;;;;;;;;;;5048171;28;20060;-57
2022/04/23 00:49:30;;;;;;;15.55;9.82;;;;;;;;;;5029897;28;20483;-58
2022/04/23 00:51:57;;;;;;;16.13;9.38;;;;;;;;;;5048144;28;20127;-57
2022/04/23 00:54:23;;;;;;;17.17;10.70;;;;;;;;;;5047415;28;20090;-57
2022/04/23 00:56:49;;;;;;;17.23;10.30;;;;;;;;;;5028941;28;20053;-57
2022/04/23 00:59:15;;;;;;;17.88;10.43;;;;;;;;;;5047863;28;20120;-57
2022/04/23 01:01:42;;;;;;;15.93;10.38;;;;;;;;;;5047624;28;20048;-57
2022/04/23 01:04:09;;;;;;;16.92;9.98;;;;;;;;;;5047388;28;20111;-57
2022/04/23 01:06:36;;;;;;;15.07;10.35;;;;;;;;;;5047486;28;20154;-58
2022/04/23 01:09:05;;;;;;;17.35;10.68;;;;;;;;;;5047254;28;20044;-57
2022/04/23 01:11:32;;;;;;;17.33;10.20;;;;;;;;;;5040028;28;20073;-57
2022/04/23 01:13:59;;;;;;;16.73;10.15;;;;;;;;;;5028081;28;20041;-58
2022/04/23 01:16:25;;;;;;;17.38;10.20;;;;;;;;;;5027946;28;20088;-57
2022/04/23 01:18:51;;;;;;;15.82;10.73;;;;;;;;;;5027131;28;20038;-57
2022/04/23 01:21:18;;;;;;;18.65;9.95;;;;;;;;;;5027139;28;20064;-57
2022/04/23 01:23:46;;;;;;;19.75;10.70;;;;;;;;;;5027538;28;20037;-57
2022/04/23 01:26:14;;;;;;;;;;;;;;;;;;5009582;28;20041;-57
2022/04/23 01:28:40;;;;;;;12.48;8.40;;;;;;;;;;5026811;28;19967;-57
2022/04/23 01:31:07;;;;;;;16.10;9.00;;;;;;;;;;5027111;28;20042;-57
2022/04/23 01:33:34;;;;;;;16.23;8.73;;;;;;;;;;5026023;28;20128;-57
2022/04/23 01:36:00;;;;;;;15.95;8.57;;;;;;;;;;5027048;28;20052;-58
2022/04/23 01:38:26;;;;;;;15.30;9.35;;;;;;;;;;5027463;28;20045;-57
2022/04/23 01:40:52;;;;;;;15.10;8.90;;;;;;;;;;5026406;28;20059;-58
2022/04/23 01:43:18;;;;;;;14.00;9.13;;;;;;;;;;5027298;28;20056;-57
2022/04/23 01:45:44;;;;;;;13.75;9.52;;;;;;;;;;5008894;28;20579;-57
2022/04/23 01:48:11;;;;;;;15.30;9.90;;;;;;;;;;5027044;28;20523;-57
2022/04/23 01:50:37;;;;;;;13.82;8.48;;;;;;;;;;5026380;28;20403;-57
2022/04/23 01:53:04;;;;;;;14.52;9.30;;;;;;;;;;5027149;28;20107;-57
2022/04/23 01:55:30;;;;;;;16.17;9.32;;;;;;;;;;5026371;28;20085;-58
2022/04/23 01:57:56;;;;;;;14.70;9.48;;;;;;;;;;5026585;28;20056;-57
2022/04/23 02:00:22;;;;;;;17.05;8.88;;;;;;;;;;5026851;28;20621;-57
2022/04/23 02:02:49;;;;;;;12.50;8.65;;;;;;;;;;5026293;28;20061;-57
2022/04/23 02:05:15;;;;;;;14.68;8.25;;;;;;;;;;5026183;28;20057;-57
2022/04/23 02:07:42;;;;;;;13.65;7.78;;;;;;;;;;5026512;28;20045;-58
2022/04/23 02:10:09;;;;;;;15.95;8.93;;;;;;;;;;5026602;28;20432;-57
2022/04/23 02:12:38;;;;;;;18.07;9.10;;;;;;;;;;5025686;28;20053;-57
2022/04/23 02:15:07;;;;;;;;;;;;;;;;;;5026903;28;20554;-57
2022/04/23 02:17:40;;;;;;;13.07;8.00;;;;;;;;;;5025724;28;19947;-57
2022/04/23 02:20:07;;;;;;;14.35;8.57;;;;;;;;;;5026265;28;20675;-57
2022/04/23 02:22:34;;;;;;;15.55;9.05;;;;;;;;;;5026222;28;20077;-57
2022/04/23 02:25:00;;;;;;;13.82;8.57;;;;;;;;;;5026284;28;20059;-57
2022/04/23 02:27:28;;;;;;;13.43;8.98;;;;;;;;;;5026599;28;20046;-57
2022/04/23 02:29:54;;;;;;;16.52;9.25;;;;;;;;;;5045393;28;20094;-57
2022/04/23 02:32:21;;;;;;;11.38;8.07;;;;;;;;;;5046088;28;20081;-57
2022/04/23 02:34:47;;;;;;;18.92;9.65;;;;;;;;;;5045879;28;20060;-57
2022/04/23 02:37:13;;;;;;;18.05;9.38;;;;;;;;;;5046194;28;20098;-57
2022/04/23 02:39:40;;;;;;;12.15;8.73;;;;;;;;;;5045686;28;20120;-57
2022/04/23 02:42:09;;;;;;;13.38;8.77;;;;;;;;;;5045162;28;20049;-57
2022/04/23 02:44:35;;;;;;;16.08;9.63;;;;;;;;;;5045229;28;20048;-57
2022/04/23 02:47:02;;;;;;;12.70;8.70;;;;;;;;;;5046064;28;20045;-57
2022/04/23 02:49:28;;;;;;;14.27;9.68;;;;;;;;;;5046039;28;20319;-57
2022/04/23 02:51:54;;;;;;;13.48;9.30;;;;;;;;;;5045695;28;20045;-57
2022/04/23 02:54:20;;;;;;;18.30;8.85;;;;;;;;;;5045521;28;20044;-58
2022/04/23 02:56:46;;;;;;;16.52;9.35;;;;;;;;;;5044598;28;20101;-57
2022/04/23 02:59:12;;;;;;;13.07;9.10;;;;;;;;;;5045154;28;20045;-57
2022/04/23 03:01:39;;;;;;;15.45;10.32;;;;;;;;;;5045425;28;20115;-57
2022/04/23 03:04:05;;;;;;;17.40;9.52;;;;;;;;;;5045273;28;20061;-57
2022/04/23 03:06:33;;;;;;;17.27;9.98;;;;;;;;;;5044963;28;20152;-58
2022/04/23 03:09:02;;;;;;;34.70;24.35;;;;;;;;;;5044790;28;20060;-57
2022/04/23 03:11:30;;;;;;;16.02;9.45;;;;;;;;;;5044100;28;20544;-57
2022/04/23 03:13:58;;;;;;;16.13;9.90;;;;;;;;;;5045694;28;20127;-57
2022/04/23 03:16:26;;;;;;;14.88;9.60;;;;;;;;;;5045579;28;20045;-57
2022/04/23 03:18:53;;;;;;;16.38;9.52;;;;;;;;;;5045158;28;20045;-57
2022/04/23 03:21:19;;;;;;;15.77;9.55;;;;;;;;;;5027478;28;20495;-57
2022/04/23 03:23:45;;;;;;;16.00;9.20;;;;;;;;;;5044831;28;20045;-57
2022/04/23 03:26:11;;;;;;;14.18;9.25;;;;;;;;;;5044167;28;20045;-57
2022/04/23 03:28:37;;;;;;;16.23;9.05;;;;;;;;;;5045073;28;20339;-57
2022/04/23 03:31:04;;;;;;;15.90;9.23;;;;;;;;;;5044948;28;20041;-58
2022/04/23 03:33:30;;;;;;;15.93;9.45;;;;;;;;;;5045200;28;20045;-57
2022/04/23 03:35:57;;;;;;;18.02;9.55;;;;;;;;;;5045650;28;20053;-57
2022/04/23 03:38:23;;;;;;;18.30;9.23;;;;;;;;;;5044829;28;20041;-57
2022/04/23 03:40:53;;;;;;;14.43;9.23;;;;;;;;;;5043038;28;20040;-57
2022/04/23 03:43:20;;;;;;;14.98;9.23;;;;;;;;;;5044666;28;20116;-57
2022/04/23 03:45:47;;;;;;;17.27;9.60;;;;;;;;;;5044471;28;20451;-57
2022/04/23 03:48:14;;;;;;;14.05;9.48;;;;;;;;;;5044865;28;20047;-57
2022/04/23 03:50:40;;;;;;;14.55;9.23;;;;;;;;;;5044248;28;20542;-57
2022/04/23 03:53:08;;;;;;;17.83;9.98;;;;;;;;;;5043989;28;20626;-57
2022/04/23 03:55:35;;;;;;;14.18;8.75;;;;;;;;;;5042897;28;20048;-57
2022/04/23 03:58:01;;;;;;;16.95;10.07;;;;;;;;;;5044894;28;20090;-57
2022/04/23 04:00:28;;;;;;;16.50;9.27;;;;;;;;;;5045048;28;20041;-57
2022/04/23 04:02:55;;;;;;;15.48;9.65;;;;;;;;;;5044363;28;20187;-57
2022/04/23 04:05:22;;;;;;;14.07;8.60;;;;;;;;;;5044767;28;20387;-57
2022/04/23 04:07:49;;;;;;;16.67;9.20;;;;;;;;;;5044309;28;20045;-57
2022/04/23 04:10:17;;;;;;;17.25;9.43;;;;;;;;;;5044512;28;20041;-57
2022/04/23 04:12:43;;;;;;;16.40;9.40;;;;;;;;;;5043608;28;20678;-57
2022/04/23 04:15:10;;;;;;;15.02;9.00;;;;;;;;;;5044431;28;20559;-57
2022/04/23 04:17:36;;;;;;;17.23;9.18;;;;;;;;;;5044370;28;20478;-57
2022/04/23 04:20:04;;;;;;;16.98;9.35;;;;;;;;;;5043811;28;20052;-57
2022/04/23 04:22:31;;;;;;;17.17;9.80;;;;;;;;;;5044106;28;20356;-58
2022/04/23 04:24:57;;;;;;;14.55;9.77;;;;;;;;;;5044563;28;20475;-57
2022/04/23 04:27:24;;;;;;;21.65;11.00;;;;;;;;;;5043891;28;20040;-57
2022/04/23 04:29:51;;;;;;;13.20;9.15;;;;;;;;;;5043943;28;20453;-57
2022/04/23 04:32:17;;;;;;;16.58;9.40;;;;;;;;;;5044220;28;20283;-57
2022/04/23 04:34:43;;;;;;;17.75;10.00;;;;;;;;;;5043507;28;20540;-57
2022/04/23 04:37:10;;;;;;;15.35;9.50;;;;;;;;;;5044371;28;20049;-57
2022/04/23 04:39:37;;;;;;;16.77;9.45;;;;;;;;;;5044006;28;20138;-57
2022/04/23 04:42:03;;;;;;;15.70;9.48;;;;;;;;;;5043440;28;20045;-57
2022/04/23 04:44:30;;;;;;;13.15;9.48;;;;;;;;;;5044712;28;20127;-56
2022/04/23 04:46:56;;;;;;;17.00;9.57;;;;;;;;;;5044386;28;20423;-57
2022/04/23 04:49:22;;;;;;;15.65;10.07;;;;;;;;;;5043236;28;20041;-57
2022/04/23 04:51:49;;;;;;;15.85;10.20;;;;;;;;;;5029529;28;20049;-57
2022/04/23 04:54:18;;;;;;;12.23;8.65;;;;;;;;;;5023958;28;20049;-57
2022/04/23 04:56:45;;;;;;;14.70;9.27;;;;;;;;;;5023524;28;20115;-57
2022/04/23 04:59:12;;;;;;;16.10;8.73;;;;;;;;;;5024232;28;20041;-57
2022/04/23 05:01:38;;;;;;;14.20;9.18;;;;;;;;;;5023213;28;20059;-56
2022/04/23 05:04:04;;;;;;;13.90;9.00;;;;;;;;;;5023970;28;20103;-57
2022/04/23 05:06:30;;;;;;;14.20;8.65;;;;;;;;;;5023975;28;20510;-58
2022/04/23 05:08:56;;;;;;;13.57;9.10;;;;;;;;;;5027625;28;20636;-57
2022/04/23 05:11:22;;;;;;;14.68;9.20;;;;;;;;;;5027062;28;20060;-57
2022/04/23 05:13:49;;;;;;;15.90;8.77;;;;;;;;;;5027652;28;20049;-57
2022/04/23 05:16:15;;;;;;;11.98;8.20;;;;;;;;;;5027119;28;20057;-57
2022/04/23 05:18:41;;;;;;;11.93;8.15;;;;;;;;;;5027482;28;20042;-57
2022/04/23 05:21:07;;;;;;;14.35;8.80;;;;;;;;;;5027409;28;20050;-58
2022/04/23 05:23:34;;;;;;;9.77;8.05;;;;;;;;;;5027362;28;20056;-58
2022/04/23 05:26:00;;;;;;;12.05;8.27;;;;;;;;;;5026876;28;20045;-58
2022/04/23 05:28:26;;;;;;;11.27;8.13;;;;;;;;;;5027725;28;20095;-57
2022/04/23 05:30:52;;;;;;;12.80;8.52;;;;;;;;;;5026941;28;20503;-57
2022/04/23 05:33:18;;;;;;;16.10;8.45;;;;;;;;;;5032593;28;20061;-57
2022/04/23 05:35:44;;;;;;;11.27;8.15;;;;;;;;;;5026536;28;20548;-57
2022/04/23 05:38:11;;;;;;;16.52;8.57;;;;;;;;;;5043667;28;20082;-57
2022/04/23 05:40:37;;;;;;;10.88;7.88;;;;;;;;;;5045212;28;20041;-57
2022/04/23 05:43:03;;;;;;;11.85;8.60;;;;;;;;;;5045625;28;20247;-57
2022/04/23 05:45:29;;;;;;;16.50;8.70;;;;;;;;;;5046330;28;20044;-58
2022/04/23 05:47:57;;;;;;;13.77;9.18;;;;;;;;;;5046725;28;20127;-58
2022/04/23 05:50:23;;;;;;;12.25;8.80;;;;;;;;;;5046782;28;20048;-58
2022/04/23 05:52:49;;;;;;;15.70;8.52;;;;;;;;;;5046519;28;20859;-58
2022/04/23 05:55:16;;;;;;;13.00;8.32;;;;;;;;;;5045775;28;20529;-56
2022/04/23 05:57:42;;;;;;;14.13;9.52;;;;;;;;;;5046566;28;20045;-56
2022/04/23 06:00:09;;;;;;;12.75;9.00;;;;;;;;;;5045882;28;20045;-56
2022/04/23 06:02:36;;;;;;;15.68;9.48;;;;;;;;;;5040727;28;20491;-56
2022/04/23 06:05:03;;;;;;;12.65;9.65;;;;;;;;;;5040089;28;20521;-56
2022/04/23 06:07:29;;;;;;;12.98;8.82;;;;;;;;;;5045674;28;20041;-56
2022/04/23 06:09:56;;;;;;;13.70;9.20;;;;;;;;;;5045652;28;20116;-56
2022/04/23 06:12:47;;;;;;;13.48;8.73;;;;;;;;;;5044563;28;20052;-57
2022/04/23 06:15:14;;;;;;;16.23;9.23;;;;;;;;;;5044395;28;20071;-58
2022/04/23 06:17:41;;;;;;;13.55;9.15;;;;;;;;;;5044690;28;20040;-58
2022/04/23 06:20:07;;;;;;;14.63;9.48;;;;;;;;;;5043920;28;20038;-58
2022/04/23 06:22:33;;;;;;;13.25;8.82;;;;;;;;;;5044865;28;20056;-58
2022/04/23 06:24:59;;;;;;;15.43;9.63;;;;;;;;;;5045611;28;20041;-59
2022/04/23 06:27:25;;;;;;;15.88;9.73;;;;;;;;;;5044535;28;20045;-59
2022/04/23 06:29:52;;;;;;;11.85;8.85;;;;;;;;;;5045218;28;20033;-59
2022/04/23 06:32:18;;;;;;;14.98;9.43;;;;;;;;;;5045304;28;20063;-59
2022/04/23 06:34:44;;;;;;;15.95;10.15;;;;;;;;;;5044498;28;20037;-58
2022/04/23 06:37:10;;;;;;;17.90;9.60;;;;;;;;;;5026050;28;20037;-59
2022/04/23 06:39:37;;;;;;;13.70;9.73;;;;;;;;;;5022950;28;20099;-58
2022/04/23 06:42:03;;;;;;;13.85;9.70;;;;;;;;;;5044283;28;20063;-59
2022/04/23 06:44:29;;;;;;;16.90;10.32;;;;;;;;;;5044952;28;20478;-58
2022/04/23 06:46:56;;;;;;;14.98;9.93;;;;;;;;;;5038618;28;20042;-59
2022/04/23 06:49:24;;;;;;;14.43;9.45;;;;;;;;;;5015341;28;20628;-58
2022/04/23 06:51:50;;;;;;;21.38;9.60;;;;;;;;;;5013320;28;20087;-59
2022/04/23 06:54:16;;;;;;;13.75;9.85;;;;;;;;;;5038032;28;20072;-55
2022/04/23 06:56:43;;;;;;;25.42;11.27;;;;;;;;;;5033835;28;20122;-56
2022/04/23 06:59:09;;;;;;;14.48;9.77;;;;;;;;;;5034768;28;20037;-57
2022/04/23 07:01:36;;;;;;;19.52;9.70;;;;;;;;;;5042603;28;20048;-56
2022/04/23 07:04:02;;;;;;;17.63;10.00;;;;;;;;;;5044387;28;20045;-57
2022/04/23 07:06:28;;;;;;;14.25;9.30;;;;;;;;;;5044509;28;20521;-56
2022/04/23 07:08:54;;;;;;;15.23;9.15;;;;;;;;;;5043807;28;20139;-56
2022/04/23 07:11:21;;;;;;;16.92;10.75;;;;;;;;;;5039639;28;20486;-56
2022/04/23 07:13:47;;;;;;;17.05;10.93;;;;;;;;;;5044060;28;20107;-56
2022/04/23 07:16:16;;;;;;;13.35;9.75;;;;;;;;;;5044512;28;20455;-56
2022/04/23 07:18:42;;;;;;;15.43;9.98;;;;;;;;;;5043960;28;20562;-56
2022/04/23 07:21:08;;;;;;;14.77;9.68;;;;;;;;;;5044203;28;20037;-56
2022/04/23 07:26:20;;;;;;;14.85;9.15;;;;;;;;;;5036375;28;20044;-56
2022/04/23 07:28:46;;;;;;;18.95;10.55;;;;;;;;;;5030812;28;20052;-56
2022/04/23 07:31:12;;;;;;;18.02;10.65;;;;;;;;;;5032863;28;20041;-56
2022/04/23 07:39:08;;;;;;;13.52;9.00;;;;;;;;;;5037578;28;20045;-57
2022/04/23 07:41:34;;;;;;;14.57;9.73;;;;;;;;;;5036087;28;20545;-56
2022/04/23 07:44:00;;;;;;;15.27;9.05;;;;;;;;;;5031191;28;20118;-57
2022/04/23 07:46:26;;;;;;;14.07;9.10;;;;;;;;;;5035376;28;20110;-55
2022/04/23 07:48:52;;;;;;;13.35;9.35;;;;;;;;;;5041412;28;20047;-57
2022/04/23 07:51:19;;;;;;;21.38;9.65;;;;;;;;;;5014670;28;20395;-56
2022/04/23 07:53:46;;;;;;;16.75;9.35;;;;;;;;;;5036720;28;20402;-56
2022/04/23 07:56:12;;;;;;;13.43;8.32;;;;;;;;;;5037211;28;20083;-56
2022/04/23 07:58:38;;;;;;;13.63;8.40;;;;;;;;;;5032525;28;20434;-56
2022/04/23 08:01:04;;;;;;;23.13;8.82;;;;;;;;;;5024674;28;20044;-57
2022/04/23 08:03:30;;;;;;;16.42;8.88;;;;;;;;;;5036432;28;21086;-57
2022/04/23 08:05:57;;;;;;;15.35;8.07;;;;;;;;;;5027466;28;20076;-56
2022/04/23 08:08:23;;;;;;;18.73;9.43;;;;;;;;;;5009000;28;20899;-56
2022/04/23 08:10:49;;;;;;;12.65;8.57;;;;;;;;;;5022976;28;20127;-56
2022/04/23 08:13:16;;;;;;;15.00;8.68;;;;;;;;;;5024609;28;20073;-56
2022/04/23 08:15:42;;;;;;;11.48;7.97;;;;;;;;;;5025128;28;20045;-56
2022/04/23 08:18:08;;;;;;;11.27;7.75;;;;;;;;;;5024222;28;20046;-56
2022/04/23 08:20:34;;;;;;;12.05;8.27;;;;;;;;;;5024037;28;20045;-57
2022/04/23 08:23:02;;;;;;;12.90;8.15;;;;;;;;;;5032757;28;20041;-57
2022/04/23 08:25:28;;;;;;;14.80;8.98;;;;;;;;;;5033203;28;20076;-56
2022/04/23 08:30:34;;;;;;;14.50;8.38;;;;;;;;;;5042509;28;20498;-56
2022/04/23 08:30:42;;;;;;;12.98;8.68;;;;;;;;;;5042464;28;20122;-57
2022/04/23 08:33:08;;;;;;;21.42;9.18;;;;;;;;;;5033168;28;20124;-57
2022/04/23 08:35:35;;;;;;;16.63;8.80;;;;;;;;;;5025209;28;20038;-57
2022/04/23 08:38:01;;;;;;;11.05;8.40;;;;;;;;;;5023998;28;20078;-57
2022/04/23 08:40:29;;;;;;;13.30;8.80;;;;;;;;;;5023530;28;20431;-57
2022/04/23 08:42:56;;;;;;;15.50;8.73;;;;;;;;;;5027936;28;20510;-57
2022/04/23 08:45:22;;;;;;;14.80;9.40;;;;;;;;;;5028489;28;20044;-57
2022/04/23 08:47:50;;;;;;;14.15;9.13;;;;;;;;;;5028932;28;20037;-58
2022/04/23 08:50:17;;;;;;;16.77;8.73;;;;;;;;;;5034552;28;20115;-57
2022/04/23 08:52:43;;;;;;;22.95;8.93;;;;;;;;;;5044654;28;20550;-58
2022/04/23 08:55:14;;;;;;;15.95;9.05;;;;;;;;;;5044790;28;20035;-58
2022/04/23 08:57:43;;;;;;;13.27;8.77;;;;;;;;;;5027598;28;20077;-58
2022/04/23 09:00:12;;;;;;;13.40;8.90;;;;;;;;;;5029136;28;20138;-58
2022/04/23 09:02:38;;;;;;;13.02;8.63;;;;;;;;;;5042811;28;20044;-58
2022/04/23 09:05:05;;;;;;;14.32;8.55;;;;;;;;;;5046372;28;20410;-58
2022/04/23 09:07:31;;;;;;;14.02;9.63;;;;;;;;;;5045796;28;20738;-58
2022/04/23 09:09:58;;;;;;;15.02;8.55;;;;;;;;;;5045934;28;20581;-57
2022/04/23 09:12:26;;;;;;;22.20;9.25;;;;;;;;;;5046502;28;20049;-57
2022/04/23 09:14:53;;;;;;;17.15;8.38;;;;;;;;;;5028436;28;20051;-58
2022/04/23 09:25:41;;;;;;;16.98;9.30;;;;;;;;;;5041480;28;20063;-58
2022/04/23 09:28:21;;;;;;;14.75;8.07;;;;;;;;;;5027703;28;20041;-58
2022/04/23 09:30:48;;;;;;;14.50;9.05;;;;;;;;;;5045738;28;20686;-58
2022/04/23 09:33:14;;;;;;;16.33;9.10;;;;;;;;;;5032589;28;20044;-58
2022/04/23 09:35:54;;;;;;;15.07;9.27;;;;;;;;;;5027119;28;20579;-58
2022/04/23 09:38:20;;;;;;;10.27;7.50;;;;;;;;;;5028078;28;20077;-58
2022/04/23 09:40:51;;;;;;;34.47;9.07;;;;;;;;;;5026098;28;20037;-58
2022/04/23 09:43:24;;;;;;;21.48;9.40;;;;;;;;;;5026352;28;20653;-59
2022/04/23 09:45:59;;;;;;;11.60;7.75;;;;;;;;;;5030900;28;20099;-58
2022/04/23 09:48:25;;;;;;;20.45;8.85;;;;;;;;;;5027217;28;20042;-57
2022/04/23 09:50:51;;;;;;;15.50;8.13;;;;;;;;;;5028995;28;20052;-58
2022/04/23 09:53:18;;;;;;;12.98;9.05;;;;;;;;;;5029865;28;20056;-58
2022/04/23 09:55:46;;;;;;;14.23;8.55;;;;;;;;;;5012606;28;20045;-58
2022/04/23 09:58:13;;;;;;;16.75;8.30;;;;;;;;;;5030822;28;20136;-57
2022/04/23 10:00:40;;;;;;;18.85;9.13;;;;;;;;;;5037707;28;20530;-58
2022/04/23 10:03:07;;;;;;;22.00;9.13;;;;;;;;;;5034021;28;20184;-58
2022/04/23 10:05:37;;;;;;;16.42;8.65;;;;;;;;;;5036631;28;20300;-58
2022/04/23 10:08:04;;;;;;;13.55;9.43;;;;;;;;;;5033725;28;20050;-58
2022/04/23 10:10:33;;;;;;;22.60;8.55;;;;;;;;;;5025419;28;20041;-58
2022/04/23 10:13:01;;;;;;;13.68;8.50;;;;;;;;;;5009108;28;20052;-57
2022/04/23 10:15:28;;;;;;;45.75;10.43;;;;;;;;;;5045289;28;20135;-58
2022/04/23 10:17:55;;;;;;;16.98;8.07;;;;;;;;;;5032060;28;20041;-57
2022/04/23 10:20:22;;;;;;;73.95;10.57;;;;;;;;;;5026352;28;20048;-57
2022/04/23 10:23:08;;;;;;;14.30;7.80;;;;;;;;;;5037287;28;20049;-57
2022/04/23 10:25:42;;;;;;;14.90;8.98;;;;;;;;;;5033316;28;20118;-58
2022/04/23 10:28:09;;;;;;;17.27;9.13;;;;;;;;;;5026448;28;20052;-57
2022/04/23 10:30:35;;;;;;;16.05;9.27;;;;;;;;;;5026846;28;20042;-57
2022/04/23 10:33:20;;;;;;;22.38;9.32;;;;;;;;;;5037465;28;20052;-59
2022/04/23 10:36:02;;;;;;;20.60;7.60;;;;;;;;;;5040318;28;20045;-57
2022/04/23 10:38:28;;;;;;;13.65;9.43;;;;;;;;;;5030349;28;20033;-57
2022/04/23 10:40:56;;;;;;;13.18;8.30;;;;;;;;;;5036539;28;20544;-57
2022/04/23 10:43:22;;;;;;;15.97;7.43;;;;;;;;;;5036468;28;20040;-57
2022/04/23 10:45:48;;;;;;;17.58;8.75;;;;;;;;;;5035915;28;20049;-57
2022/04/23 10:48:26;;;;;;;16.30;8.38;;;;;;;;;;5027823;28;20556;-57
2022/04/23 10:51:02;;;;;;;10.63;7.60;;;;;;;;;;5025535;28;20041;-58
2022/04/23 10:53:29;;;;;;;11.50;6.88;;;;;;;;;;5025995;28;20046;-57
2022/04/23 10:56:06;;;;;;;12.23;8.20;;;;;;;;;;5024634;28;20037;-57
2022/04/23 10:58:33;;;;;;;17.05;9.02;;;;;;;;;;5039161;28;20131;-57
2022/04/23 11:01:20;;;;;;;11.57;7.60;;;;;;;;;;5044313;28;20056;-57
2022/04/23 11:03:57;;;;;;;15.95;7.43;;;;;;;;;;5041043;28;20045;-57
2022/04/23 11:12:14;;;;;;;14.63;7.55;;;;;;;;;;5026199;28;20099;-58
2022/04/23 11:12:24;;;;;;;17.38;8.35;;;;;;;;;;5024771;28;20049;-57
2022/04/23 11:14:56;;;;;;;16.30;7.35;;;;;;;;;;5025013;28;20064;-57
2022/04/23 11:17:23;;;;;;;13.50;7.88;;;;;;;;;;5028842;28;20522;-57
2022/04/23 11:19:52;;;;;;;11.90;7.53;;;;;;;;;;5024564;28;20046;-57
2022/04/23 11:22:18;;;;;;;13.45;7.40;;;;;;;;;;5026285;28;20080;-58
2022/04/23 11:24:45;;;;;;;12.65;7.70;;;;;;;;;;5024058;28;20107;-57
2022/04/23 11:27:23;;;;;;;12.90;6.75;;;;;;;;;;5024204;28;20037;-58
2022/04/23 11:29:49;;;;;;;;;;;;;;;;;;5025071;28;20046;-58
2022/04/23 11:32:24;;;;;;;11.07;7.80;;;;;;;;;;5029178;28;20004;-58
2022/04/23 11:34:58;;;;;;;13.93;7.47;;;;;;;;;;5035992;28;20537;-58
2022/04/23 11:37:36;;;;;;;9.98;7.57;;;;;;;;;;5036851;28;20139;-57
2022/04/23 11:40:04;;;;;;;12.45;7.78;;;;;;;;;;5015546;28;20064;-58
2022/04/23 11:42:37;;;;;;;24.08;8.65;;;;;;;;;;5026737;28;20085;-58
2022/04/23 11:45:03;;;;;;;15.60;7.72;;;;;;;;;;5024862;28;20049;-58
2022/04/23 11:47:30;;;;;;;15.30;8.52;;;;;;;;;;5025684;28;20085;-57
2022/04/23 11:50:07;;;;;;;13.82;8.13;;;;;;;;;;5025017;28;20116;-57
2022/04/23 11:52:33;;;;;;;14.02;7.75;;;;;;;;;;5024255;28;20033;-57
2022/04/23 11:55:01;;;;;;;12.45;6.82;;;;;;;;;;5023825;28;20052;-57
2022/04/23 11:57:27;;;;;;;10.30;6.47;;;;;;;;;;5024792;28;20092;-57
2022/04/23 11:59:59;;;;;;;13.90;7.20;;;;;;;;;;5025610;28;20037;-58
2022/04/23 12:02:27;;;;;;;9.45;6.57;;;;;;;;;;5031807;28;20045;-58
2022/04/23 12:04:54;;;;;;;11.23;6.93;;;;;;;;;;5042952;28;20060;-58
2022/04/23 12:07:21;;;;;;;16.55;6.80;;;;;;;;;;5042941;28;20049;-58
2022/04/23 12:09:49;;;;;;;12.88;6.85;;;;;;;;;;5041441;28;20033;-58
2022/04/23 12:12:19;;;;;;;26.77;7.30;;;;;;;;;;5032175;28;20041;-58
2022/04/23 12:14:46;;;;;;;78.05;9.68;;;;;;;;;;5024036;28;20073;-58
2022/04/23 12:17:20;;;;;;;15.57;7.70;;;;;;;;;;5023993;28;20164;-58
2022/04/23 12:19:47;;;;;;;16.88;7.00;;;;;;;;;;5023699;28;20048;-57
2022/04/23 12:22:22;;;;;;;15.75;7.53;;;;;;;;;;5036827;28;20041;-58
2022/04/23 12:24:48;;;;;;;11.88;7.25;;;;;;;;;;5040548;28;20091;-58
2022/04/23 12:27:14;;;;;;;11.63;7.15;;;;;;;;;;5042819;28;20073;-57
2022/04/23 12:40:53;;;;;;;15.05;6.35;;;;;;;;;;5031973;28;20101;-58
2022/04/23 12:43:22;;;;;;;8.40;5.85;;;;;;;;;;5034774;28;20438;-58
2022/04/23 12:45:49;;;;;;;9.23;5.25;;;;;;;;;;5029798;28;20069;-58
2022/04/23 12:48:15;;;;;;;23.83;6.10;;;;;;;;;;5029403;28;20072;-57
2022/04/23 12:50:44;;;;;;;10.40;5.75;;;;;;;;;;5031276;28;20037;-58
2022/04/23 12:53:11;;;;;;;7.45;4.70;;;;;;;;;;5023838;28;20060;-58
2022/04/23 12:55:37;;;;;;;8.10;4.65;;;;;;;;;;5032741;28;20029;-58
2022/04/23 12:58:04;;;;;;;10.10;4.97;;;;;;;;;;5015753;28;20048;-58
2022/04/23 13:00:31;;;;;;;7.53;5.22;;;;;;;;;;5032186;28;20103;-59
2022/04/23 13:03:00;;;;;;;19.40;5.82;;;;;;;;;;5033497;28;20046;-58
2022/04/23 13:05:27;;;;;;;9.90;5.43;;;;;;;;;;5030851;28;20124;-58
2022/04/23 13:10:38;;;;;;;9.05;4.68;;;;;;;;;;5028166;28;20041;-58
2022/04/23 13:13:09;;;;;;;8.25;4.90;;;;;;;;;;5031102;28;20120;-58
2022/04/23 13:15:36;;;;;;;6.13;4.93;;;;;;;;;;5031656;28;20052;-58
2022/04/23 13:18:03;;;;;;;9.25;5.50;;;;;;;;;;5039815;28;20048;-58
2022/04/23 13:20:29;;;;;;;8.02;5.80;;;;;;;;;;5031427;28;20034;-58
2022/04/23 13:22:55;;;;;;;8.68;5.57;;;;;;;;;;5024063;28;20041;-56
2022/04/23 13:25:22;;;;;;;6.55;4.65;;;;;;;;;;5022992;28;20096;-56
2022/04/23 13:27:48;;;;;;;10.02;5.07;;;;;;;;;;5027176;28;20073;-57
2022/04/23 13:30:15;;;;;;;7.50;4.72;;;;;;;;;;5041809;28;20037;-57
2022/04/23 13:32:42;;;;;;;8.18;4.85;;;;;;;;;;5040432;28;20045;-57
2022/04/23 13:35:10;;;;;;;12.93;5.40;;;;;;;;;;5039661;28;20048;-57
2022/04/23 13:37:37;;;;;;;10.75;4.72;;;;;;;;;;5045596;28;20048;-57
2022/04/23 13:40:04;;;;;;;9.15;4.85;;;;;;;;;;5043518;28;20071;-57
2022/04/23 13:42:30;;;;;;;9.38;4.35;;;;;;;;;;5046118;28;20103;-57
2022/04/23 13:44:57;;;;;;;8.40;4.95;;;;;;;;;;5031507;28;20550;-57
2022/04/23 13:47:23;;;;;;;9.00;4.50;;;;;;;;;;5009225;28;20075;-57
2022/04/23 13:49:50;;;;;;;8.75;4.45;;;;;;;;;;5026848;28;20037;-57
2022/04/23 13:52:16;;;;;;;6.38;4.80;;;;;;;;;;5032403;28;20095;-57
2022/04/23 13:54:43;;;;;;;8.32;5.00;;;;;;;;;;5027110;28;20037;-58
2022/04/23 13:57:09;;;;;;;8.48;4.38;;;;;;;;;;5044937;28;20069;-57
2022/04/23 13:59:35;;;;;;;9.13;3.90;;;;;;;;;;5044812;28;20046;-57
2022/04/23 14:10:16;;;;;;;68.65;6.15;;;;;;;;;;5044846;28;20072;-57
2022/04/23 14:12:44;;;;;;;7.13;4.72;;;;;;;;;;5044942;28;20803;-58
2022/04/23 14:15:11;;;;;;;8.48;4.82;;;;;;;;;;5044528;28;20040;-57
2022/04/23 14:17:37;;;;;;;5.60;4.57;;;;;;;;;;5044799;28;20071;-58
2022/04/23 14:20:04;;;;;;;11.32;4.65;;;;;;;;;;5044596;28;20136;-57
2022/04/23 14:22:30;;;;;;;9.25;4.85;;;;;;;;;;5044313;28;20109;-59
2022/04/23 14:24:59;;;;;;;6.47;4.30;;;;;;;;;;5044830;28;20474;-57
2022/04/23 14:27:25;;;;;;;6.25;4.28;;;;;;;;;;5045085;28;20107;-57
2022/04/23 14:29:52;;;;;;;10.05;4.60;;;;;;;;;;5044306;28;20037;-57
2022/04/23 14:32:18;;;;;;;6.45;4.75;;;;;;;;;;5041899;28;20119;-58
2022/04/23 14:34:44;;;;;;;10.07;5.05;;;;;;;;;;5026243;28;20395;-58
2022/04/23 14:37:10;;;;;;;9.23;3.90;;;;;;;;;;5044804;28;20403;-57
2022/04/23 14:39:36;;;;;;;11.90;4.15;;;;;;;;;;5042896;28;20087;-58
2022/04/23 14:42:03;;;;;;;8.13;4.18;;;;;;;;;;5043838;28;20045;-58
2022/04/23 14:44:30;;;;;;;5.60;3.77;;;;;;;;;;5038641;28;20534;-58
2022/04/23 14:46:59;;;;;;;9.13;4.28;;;;;;;;;;5025858;28;20128;-57
2022/04/23 14:49:25;;;;;;;8.30;3.80;;;;;;;;;;5026112;28;20494;-58
2022/04/23 14:54:36;;;;;;;8.15;4.00;;;;;;;;;;5024138;28;20053;-58
2022/04/23 14:57:03;;;;;;;8.35;3.17;;;;;;;;;;5026734;28;20442;-58
2022/04/23 14:59:29;;;;;;;8.25;3.03;;;;;;;;;;5025418;28;20064;-58
2022/04/23 15:01:55;;;;;;;4.43;3.45;;;;;;;;;;5025530;28;20106;-58
2022/04/23 15:04:22;;;;;;;5.05;3.00;;;;;;;;;;5035434;28;20144;-58
2022/04/23 15:06:50;;;;;;;6.68;2.92;;;;;;;;;;5035821;28;20045;-58
2022/04/23 15:09:16;;;;;;;5.10;2.70;;;;;;;;;;5036291;28;20071;-58
2022/04/23 15:11:42;;;;;;;7.85;2.90;;;;;;;;;;5033713;28;20049;-59
2022/04/23 15:14:09;;;;;;;6.80;2.95;;;;;;;;;;5033992;28;20037;-58
2022/04/23 15:16:35;;;;;;;3.78;2.90;;;;;;;;;;5033344;28;20135;-58